Time;durP1;ratioP1;P1;durP2;ratioP2;P2;SDS_P1;SDS_P2;PMS_P1;PMS_P2;Temp;Humidity;BMP_temperature;BMP_pressure;BME280_temperature;BME280_humidity;BME280_pressure;Samples;Min_cycle;Max_cycle;Signal;HPM_P1;HPM_P2
2022/05/20 00:02:16;;;;;;;5.28;3.53;;;;;;;;;;5102420;28;20195;-68
2022/05/20 00:04:42;;;;;;;4.53;3.13;;;;;;;;;;5102313;28;20223;-68
2022/05/20 00:07:09;;;;;;;6.50;3.53;;;;;;;;;;5102399;28;20266;-68
2022/05/20 00:09:36;;;;;;;6.18;3.28;;;;;;;;;;5102472;28;20237;-68
2022/05/20 00:12:04;;;;;;;6.28;3.72;;;;;;;;;;5102446;28;20286;-68
2022/05/20 00:14:32;;;;;;;4.78;3.53;;;;;;;;;;5102345;28;20459;-68
2022/05/20 00:17:01;;;;;;;3.83;3.53;;;;;;;;;;5102012;28;20202;-68
2022/05/20 00:19:28;;;;;;;4.85;3.03;;;;;;;;;;5102317;28;20216;-68
2022/05/20 00:21:54;;;;;;;3.85;3.60;;;;;;;;;;5102375;28;20202;-68
2022/05/20 00:24:20;;;;;;;3.67;3.35;;;;;;;;;;5102453;28;20199;-68
2022/05/20 00:26:47;;;;;;;6.70;3.30;;;;;;;;;;5101894;28;20273;-68
2022/05/20 00:29:13;;;;;;;4.10;3.30;;;;;;;;;;5102304;28;20206;-68
2022/05/20 00:31:41;;;;;;;4.28;3.75;;;;;;;;;;5102029;28;20222;-68
2022/05/20 00:34:07;;;;;;;4.50;4.07;;;;;;;;;;5102294;28;20195;-68
2022/05/20 00:36:33;;;;;;;7.55;3.83;;;;;;;;;;5101876;28;20196;-68
2022/05/20 00:39:00;;;;;;;3.85;3.00;;;;;;;;;;5102125;28;20566;-68
2022/05/20 00:41:26;;;;;;;5.15;3.70;;;;;;;;;;5102219;28;20200;-68
2022/05/20 00:43:52;;;;;;;3.40;3.20;;;;;;;;;;5101990;28;20206;-68
2022/05/20 00:46:19;;;;;;;5.80;3.42;;;;;;;;;;5101807;28;20514;-68
2022/05/20 00:48:48;;;;;;;4.55;3.50;;;;;;;;;;5102134;28;20274;-70
2022/05/20 00:51:15;;;;;;;4.03;3.40;;;;;;;;;;5102199;28;20420;-68
2022/05/20 00:53:44;;;;;;;5.95;3.15;;;;;;;;;;5101898;28;20202;-68
2022/05/20 00:56:13;;;;;;;5.03;3.97;;;;;;;;;;5101863;28;20200;-68
2022/05/20 00:58:41;;;;;;;4.35;3.30;;;;;;;;;;5101877;28;20235;-68
2022/05/20 01:01:07;;;;;;;5.70;3.65;;;;;;;;;;5104013;28;20285;-68
2022/05/20 01:03:36;;;;;;;3.47;3.28;;;;;;;;;;5105811;28;20222;-68
2022/05/20 01:06:03;;;;;;;10.25;4.20;;;;;;;;;;5105486;28;20219;-68
2022/05/20 01:08:31;;;;;;;3.58;3.30;;;;;;;;;;5105681;28;20198;-68
2022/05/20 01:10:57;;;;;;;3.42;3.20;;;;;;;;;;5105619;28;20195;-68
2022/05/20 01:13:25;;;;;;;5.80;3.60;;;;;;;;;;5105923;28;20196;-68
2022/05/20 01:15:51;;;;;;;4.00;3.70;;;;;;;;;;5105710;28;20202;-68
2022/05/20 01:18:18;;;;;;;4.25;3.85;;;;;;;;;;5105247;28;20399;-68
2022/05/20 01:20:45;;;;;;;5.57;3.75;;;;;;;;;;5105578;28;20229;-68
2022/05/20 01:23:14;;;;;;;5.93;3.83;;;;;;;;;;5105189;28;20202;-68
2022/05/20 01:25:41;;;;;;;4.07;3.67;;;;;;;;;;5105243;28;20196;-68
2022/05/20 01:28:07;;;;;;;4.05;3.65;;;;;;;;;;5104953;28;20199;-68
2022/05/20 01:30:34;;;;;;;3.90;3.60;;;;;;;;;;5105334;28;20196;-68
2022/05/20 01:33:02;;;;;;;6.30;4.00;;;;;;;;;;5105553;28;20204;-68
2022/05/20 01:35:32;;;;;;;3.85;3.55;;;;;;;;;;5105216;28;20267;-68
2022/05/20 01:37:58;;;;;;;6.53;3.42;;;;;;;;;;5104416;28;20442;-70
2022/05/20 01:40:27;;;;;;;4.43;4.03;;;;;;;;;;5104971;28;20195;-70
2022/05/20 01:42:56;;;;;;;4.30;3.90;;;;;;;;;;5105066;28;20436;-70
2022/05/20 01:45:27;;;;;;;3.33;3.13;;;;;;;;;;5105038;28;20195;-70
2022/05/20 01:47:56;;;;;;;7.68;4.50;;;;;;;;;;5104698;28;20207;-68
2022/05/20 01:50:25;;;;;;;6.43;3.88;;;;;;;;;;5104725;28;20558;-70
2022/05/20 01:52:54;;;;;;;4.32;4.07;;;;;;;;;;5105004;28;20196;-70
2022/05/20 01:55:22;;;;;;;5.30;3.88;;;;;;;;;;5104871;28;20495;-70
2022/05/20 01:57:53;;;;;;;4.13;3.63;;;;;;;;;;5104691;28;20203;-70
2022/05/20 02:00:21;;;;;;;7.32;4.38;;;;;;;;;;5104730;28;20538;-70
2022/05/20 02:02:51;;;;;;;7.30;3.92;;;;;;;;;;5104755;28;20207;-70
2022/05/20 02:05:20;;;;;;;4.00;3.70;;;;;;;;;;5104800;28;20265;-70
2022/05/20 02:07:48;;;;;;;3.58;3.38;;;;;;;;;;5104271;28;20203;-70
2022/05/20 02:10:17;;;;;;;3.80;3.50;;;;;;;;;;5104328;28;20248;-70
2022/05/20 02:12:46;;;;;;;6.30;3.83;;;;;;;;;;5104114;28;20384;-70
2022/05/20 02:15:17;;;;;;;3.85;3.60;;;;;;;;;;5104313;28;20195;-70
2022/05/20 02:17:45;;;;;;;6.00;4.38;;;;;;;;;;5104309;28;20241;-70
2022/05/20 02:20:14;;;;;;;4.22;3.83;;;;;;;;;;5104340;28;20216;-70
2022/05/20 02:22:42;;;;;;;5.75;3.85;;;;;;;;;;5104247;28;20541;-70
2022/05/20 02:25:11;;;;;;;4.78;4.35;;;;;;;;;;5104255;28;20233;-70
2022/05/20 02:27:39;;;;;;;6.93;4.13;;;;;;;;;;5104358;28;20379;-70
2022/05/20 02:30:07;;;;;;;4.18;3.88;;;;;;;;;;5104252;28;20237;-70
2022/05/20 02:32:38;;;;;;;4.43;4.03;;;;;;;;;;5104410;28;20196;-70
2022/05/20 02:35:05;;;;;;;4.95;4.32;;;;;;;;;;5104021;28;20203;-70
2022/05/20 02:37:32;;;;;;;4.55;3.85;;;;;;;;;;5103759;28;20258;-70
2022/05/20 02:39:59;;;;;;;8.63;4.07;;;;;;;;;;5103691;28;20212;-70
2022/05/20 02:42:26;;;;;;;5.28;3.70;;;;;;;;;;5103752;28;20228;-70
2022/05/20 02:44:53;;;;;;;4.40;4.07;;;;;;;;;;5104012;28;20204;-70
2022/05/20 02:47:19;;;;;;;6.72;4.40;;;;;;;;;;5103634;28;20514;-70
2022/05/20 02:49:47;;;;;;;5.15;4.20;;;;;;;;;;5103731;28;20192;-70
2022/05/20 02:52:14;;;;;;;5.82;3.97;;;;;;;;;;5103688;28;20522;-70
2022/05/20 02:54:40;;;;;;;4.60;4.20;;;;;;;;;;5103614;28;20196;-70
2022/05/20 02:57:06;;;;;;;5.00;4.05;;;;;;;;;;5103207;28;20203;-70
2022/05/20 03:05:02;;;;;;;8.30;4.10;;;;;;;;;;5103411;28;20214;-70
2022/05/20 03:07:28;;;;;;;5.18;4.45;;;;;;;;;;5103657;28;20196;-70
2022/05/20 03:09:54;;;;;;;4.50;4.10;;;;;;;;;;5103254;28;20191;-70
2022/05/20 03:12:20;;;;;;;4.65;4.35;;;;;;;;;;5103663;28;20210;-70
2022/05/20 03:14:47;;;;;;;10.13;4.47;;;;;;;;;;5103353;28;20195;-70
2022/05/20 03:17:13;;;;;;;8.10;4.10;;;;;;;;;;5103077;28;20233;-70
2022/05/20 03:19:39;;;;;;;5.45;4.03;;;;;;;;;;5103015;28;20215;-70
2022/05/20 03:22:07;;;;;;;4.65;4.07;;;;;;;;;;5103238;28;20526;-70
2022/05/20 03:24:34;;;;;;;4.38;4.07;;;;;;;;;;5102492;28;20195;-70
2022/05/20 03:27:00;;;;;;;4.35;3.97;;;;;;;;;;5102842;28;20200;-70
2022/05/20 03:29:26;;;;;;;4.18;3.95;;;;;;;;;;5102993;28;20254;-70
2022/05/20 03:31:53;;;;;;;7.38;4.25;;;;;;;;;;5102928;28;20199;-70
2022/05/20 03:34:19;;;;;;;5.55;4.43;;;;;;;;;;5102877;28;20257;-70
2022/05/20 03:36:48;;;;;;;4.38;4.07;;;;;;;;;;5102657;28;20207;-70
2022/05/20 03:39:17;;;;;;;5.05;4.63;;;;;;;;;;5102721;28;20265;-68
2022/05/20 03:41:44;;;;;;;5.22;4.82;;;;;;;;;;5102931;28;20256;-68
2022/05/20 03:44:11;;;;;;;8.75;4.88;;;;;;;;;;5102761;28;20398;-68
2022/05/20 03:46:39;;;;;;;6.57;4.70;;;;;;;;;;5102553;28;20557;-70
2022/05/20 03:49:06;;;;;;;5.82;4.88;;;;;;;;;;5102482;28;20192;-70
2022/05/20 03:51:33;;;;;;;5.07;4.50;;;;;;;;;;5102727;28;20199;-70
2022/05/20 03:53:59;;;;;;;6.72;5.30;;;;;;;;;;5102765;28;20195;-70
2022/05/20 03:56:27;;;;;;;7.00;4.93;;;;;;;;;;5102409;28;20233;-70
2022/05/20 03:58:53;;;;;;;5.15;4.82;;;;;;;;;;5102458;28;20260;-70
2022/05/20 04:04:03;;;;;;;5.82;5.30;;;;;;;;;;5102466;28;20560;-70
2022/05/20 04:06:29;;;;;;;8.00;5.57;;;;;;;;;;5102388;28;20235;-70
2022/05/20 04:08:56;;;;;;;9.98;5.30;;;;;;;;;;5102169;28;20360;-70
2022/05/20 04:11:23;;;;;;;8.32;5.35;;;;;;;;;;5102512;28;20290;-70
2022/05/20 04:13:50;;;;;;;7.25;5.65;;;;;;;;;;5102371;28;20230;-70
2022/05/20 04:16:17;;;;;;;5.85;5.43;;;;;;;;;;5101963;28;20543;-70
2022/05/20 04:18:43;;;;;;;8.75;5.50;;;;;;;;;;5102415;28;20684;-70
2022/05/20 04:21:10;;;;;;;7.18;5.28;;;;;;;;;;5102202;28;20202;-70
2022/05/20 04:23:36;;;;;;;6.13;5.63;;;;;;;;;;5102596;28;20196;-70
2022/05/20 04:26:03;;;;;;;8.35;5.32;;;;;;;;;;5102049;28;20526;-70
2022/05/20 04:28:29;;;;;;;5.80;5.28;;;;;;;;;;5102091;28;20195;-70
2022/05/20 04:30:58;;;;;;;8.73;5.47;;;;;;;;;;5102269;28;20206;-70
2022/05/20 04:33:24;;;;;;;7.07;5.57;;;;;;;;;;5102294;28;20196;-70
2022/05/20 04:35:51;;;;;;;6.57;5.97;;;;;;;;;;5105449;28;20215;-68
2022/05/20 04:38:17;;;;;;;13.38;6.00;;;;;;;;;;5106057;28;20199;-67
2022/05/20 04:40:43;;;;;;;7.55;5.50;;;;;;;;;;5106039;28;20226;-70
2022/05/20 04:48:53;;;;;;;5.95;5.45;;;;;;;;;;5063828;28;20196;-70
2022/05/20 04:51:19;;;;;;;7.70;6.20;;;;;;;;;;5086977;28;20200;-70
2022/05/20 04:56:29;;;;;;;6.75;6.13;;;;;;;;;;5105790;28;20230;-70
2022/05/20 04:58:55;;;;;;;10.77;6.35;;;;;;;;;;5105757;28;20202;-70
2022/05/20 05:01:23;;;;;;;5.88;5.20;;;;;;;;;;5105671;28;20203;-70
2022/05/20 05:03:49;;;;;;;10.05;6.93;;;;;;;;;;5105898;28;20203;-70
2022/05/20 05:06:15;;;;;;;6.25;5.72;;;;;;;;;;5105177;28;20219;-70
2022/05/20 05:08:41;;;;;;;7.22;5.93;;;;;;;;;;5105997;28;20196;-70
2022/05/20 05:11:08;;;;;;;7.28;6.32;;;;;;;;;;5106030;28;20499;-70
2022/05/20 05:13:34;;;;;;;9.52;6.43;;;;;;;;;;5105578;28;20420;-70
2022/05/20 05:16:05;;;;;;;12.38;7.55;;;;;;;;;;5105402;28;20271;-70
2022/05/20 05:18:33;;;;;;;11.30;8.23;;;;;;;;;;5105498;28;20257;-70
2022/05/20 05:21:01;;;;;;;9.05;7.18;;;;;;;;;;5105654;28;20234;-70
2022/05/20 05:23:27;;;;;;;14.57;8.43;;;;;;;;;;5105508;28;20230;-70
2022/05/20 05:25:53;;;;;;;17.77;11.93;;;;;;;;;;5105479;28;20196;-70
2022/05/20 05:28:20;;;;;;;6.85;6.20;;;;;;;;;;5104948;28;20200;-70
2022/05/20 05:30:47;;;;;;;7.72;5.88;;;;;;;;;;5104625;28;20191;-70
2022/05/20 05:33:13;;;;;;;12.45;6.68;;;;;;;;;;5104946;28;20480;-70
2022/05/20 05:35:40;;;;;;;7.53;5.85;;;;;;;;;;5104794;28;20218;-70
2022/05/20 05:38:07;;;;;;;10.00;6.05;;;;;;;;;;5104480;28;20195;-70
2022/05/20 05:40:34;;;;;;;8.05;6.47;;;;;;;;;;5104517;28;20257;-70
2022/05/20 05:43:00;;;;;;;17.10;6.35;;;;;;;;;;5104483;28;20264;-70
2022/05/20 05:45:27;;;;;;;14.55;7.07;;;;;;;;;;5104426;28;20215;-70
2022/05/20 05:47:55;;;;;;;8.52;5.97;;;;;;;;;;5103196;28;20376;-70
2022/05/20 05:50:22;;;;;;;11.88;6.70;;;;;;;;;;5104560;28;20218;-70
2022/05/20 05:52:55;;;;;;;10.77;6.22;;;;;;;;;;5104197;28;20226;-70
2022/05/20 05:55:22;;;;;;;10.68;6.28;;;;;;;;;;5104367;28;20204;-70
2022/05/20 05:57:48;;;;;;;9.73;6.70;;;;;;;;;;5104018;28;20206;-70
2022/05/20 06:00:15;;;;;;;8.93;6.15;;;;;;;;;;5103722;28;20215;-69
2022/05/20 06:02:41;;;;;;;11.75;5.85;;;;;;;;;;5103262;28;20207;-69
2022/05/20 06:05:08;;;;;;;8.70;5.60;;;;;;;;;;5104110;28;20412;-69
2022/05/20 06:07:34;;;;;;;10.40;5.70;;;;;;;;;;5103996;28;20243;-69
2022/05/20 06:10:01;;;;;;;7.57;5.63;;;;;;;;;;5104450;28;20191;-69
2022/05/20 06:12:31;;;;;;;8.60;5.05;;;;;;;;;;5104082;28;20257;-69
2022/05/20 06:14:57;;;;;;;7.90;5.40;;;;;;;;;;5104218;28;20266;-69
2022/05/20 06:17:23;;;;;;;6.82;5.93;;;;;;;;;;5105260;28;20196;-69
2022/05/20 06:19:50;;;;;;;7.32;5.50;;;;;;;;;;5107478;28;20243;-69
2022/05/20 06:22:16;;;;;;;7.70;5.38;;;;;;;;;;5104216;28;20196;-69
2022/05/20 06:24:42;;;;;;;8.77;5.20;;;;;;;;;;5104122;28;20242;-68
2022/05/20 06:27:10;;;;;;;7.25;4.90;;;;;;;;;;5103945;28;20241;-68
2022/05/20 06:29:38;;;;;;;5.97;5.45;;;;;;;;;;5103922;28;20200;-68
2022/05/20 06:32:04;;;;;;;5.35;4.93;;;;;;;;;;5104203;28;20200;-69
2022/05/20 06:39:48;;;;;;;6.00;5.10;;;;;;;;;;5104197;28;20241;-69
2022/05/20 06:40:05;;;;;;;7.40;5.30;;;;;;;;;;5103664;28;20242;-68
2022/05/20 06:42:33;;;;;;;9.82;5.68;;;;;;;;;;5104148;28;20233;-68
2022/05/20 06:44:59;;;;;;;5.60;5.10;;;;;;;;;;5103819;28;20247;-68
2022/05/20 06:47:26;;;;;;;5.68;4.90;;;;;;;;;;5103640;28;20233;-68
2022/05/20 06:49:52;;;;;;;5.53;5.13;;;;;;;;;;5103679;28;20192;-68
2022/05/20 06:52:18;;;;;;;8.75;5.97;;;;;;;;;;5103624;28;20207;-69
2022/05/20 06:54:44;;;;;;;9.60;5.50;;;;;;;;;;5103794;28;20241;-69
2022/05/20 06:57:11;;;;;;;12.25;6.20;;;;;;;;;;5103563;28;20196;-69
2022/05/20 06:59:38;;;;;;;7.72;5.40;;;;;;;;;;5102577;28;20196;-69
2022/05/20 07:02:04;;;;;;;5.80;5.28;;;;;;;;;;5103185;28;20210;-69
2022/05/20 07:04:31;;;;;;;6.57;5.35;;;;;;;;;;5103349;28;20565;-69
2022/05/20 07:06:57;;;;;;;7.40;5.55;;;;;;;;;;5103077;28;20495;-69
2022/05/20 07:09:23;;;;;;;8.48;4.78;;;;;;;;;;5103592;28;20241;-69
2022/05/20 07:11:50;;;;;;;13.40;6.72;;;;;;;;;;5103420;28;20195;-69
2022/05/20 07:14:16;;;;;;;8.25;5.72;;;;;;;;;;5103401;28;20203;-71
2022/05/20 07:16:44;;;;;;;5.55;4.93;;;;;;;;;;5102800;28;20199;-71
2022/05/20 07:19:11;;;;;;;9.35;4.55;;;;;;;;;;5102359;28;20195;-70
2022/05/20 07:21:37;;;;;;;11.10;7.45;;;;;;;;;;5080813;28;20235;-71
2022/05/20 07:24:04;;;;;;;8.40;5.80;;;;;;;;;;5092643;28;20485;-70
2022/05/20 07:26:30;;;;;;;8.63;5.60;;;;;;;;;;5096071;28;20207;-70
2022/05/20 07:28:57;;;;;;;7.72;5.20;;;;;;;;;;5096510;28;20261;-70
2022/05/20 07:31:24;;;;;;;8.18;5.43;;;;;;;;;;5096770;28;20211;-71
2022/05/20 07:33:52;;;;;;;10.95;5.65;;;;;;;;;;5096497;28;20208;-70
2022/05/20 07:36:18;;;;;;;4.60;4.13;;;;;;;;;;5096323;28;20237;-70
2022/05/20 07:38:45;;;;;;;6.70;4.80;;;;;;;;;;5096212;28;20260;-70
2022/05/20 07:41:13;;;;;;;7.28;5.32;;;;;;;;;;5096135;28;20603;-69
2022/05/20 07:43:39;;;;;;;6.63;4.75;;;;;;;;;;5096175;28;20265;-70
2022/05/20 07:46:06;;;;;;;7.95;4.80;;;;;;;;;;5095688;28;20211;-71
2022/05/20 07:48:32;;;;;;;4.82;4.53;;;;;;;;;;5096259;28;20207;-70
2022/05/20 07:51:01;;;;;;;10.85;4.80;;;;;;;;;;5095800;28;20203;-70
2022/05/20 07:53:33;;;;;;;5.35;4.75;;;;;;;;;;5095973;28;20233;-70
2022/05/20 07:56:00;;;;;;;9.90;4.60;;;;;;;;;;5095976;28;20291;-70
2022/05/20 07:58:28;;;;;;;7.53;4.47;;;;;;;;;;5096112;28;20211;-70
2022/05/20 08:00:58;;;;;;;6.25;4.72;;;;;;;;;;5095409;28;20223;-70
2022/05/20 08:06:10;;;;;;;6.95;5.28;;;;;;;;;;5095680;28;20462;-69
2022/05/20 08:08:36;;;;;;;12.30;4.65;;;;;;;;;;5095753;28;20215;-69
2022/05/20 08:11:02;;;;;;;11.25;4.80;;;;;;;;;;5095138;28;20483;-69
2022/05/20 08:13:28;;;;;;;7.50;4.78;;;;;;;;;;5095465;28;20207;-69
2022/05/20 08:15:55;;;;;;;5.40;4.90;;;;;;;;;;5095467;28;20211;-69
2022/05/20 08:18:21;;;;;;;11.10;4.90;;;;;;;;;;5095769;28;20215;-69
2022/05/20 08:20:47;;;;;;;5.22;4.72;;;;;;;;;;5095593;28;20276;-69
2022/05/20 08:23:15;;;;;;;6.15;4.70;;;;;;;;;;5096175;28;20207;-69
2022/05/20 08:25:41;;;;;;;12.07;5.05;;;;;;;;;;5096194;28;20592;-69
2022/05/20 08:28:08;;;;;;;7.10;5.10;;;;;;;;;;5095622;28;20211;-69
2022/05/20 08:30:34;;;;;;;5.90;4.47;;;;;;;;;;5095590;28;20210;-69
2022/05/20 08:33:00;;;;;;;6.20;4.38;;;;;;;;;;5095778;28;20207;-69
2022/05/20 08:35:27;;;;;;;4.93;4.45;;;;;;;;;;5095725;28;20442;-69
2022/05/20 08:37:54;;;;;;;4.53;4.03;;;;;;;;;;5095647;28;20332;-69
2022/05/20 08:40:23;;;;;;;7.30;4.07;;;;;;;;;;5095319;28;20234;-69
2022/05/20 08:42:50;;;;;;;8.43;4.25;;;;;;;;;;5095265;28;20547;-69
2022/05/20 08:45:18;;;;;;;6.55;4.57;;;;;;;;;;5095933;28;20486;-69
2022/05/20 08:47:46;;;;;;;5.65;4.40;;;;;;;;;;5095431;28;20547;-69
2022/05/20 08:50:14;;;;;;;7.25;4.40;;;;;;;;;;5095490;28;20218;-69
2022/05/20 08:52:41;;;;;;;6.57;4.00;;;;;;;;;;5095240;28;20211;-69
2022/05/20 08:55:08;;;;;;;4.93;4.45;;;;;;;;;;5095896;28;20393;-69
2022/05/20 08:57:35;;;;;;;4.50;3.92;;;;;;;;;;5095426;28;20199;-69
2022/05/20 09:00:03;;;;;;;8.90;4.03;;;;;;;;;;5095247;28;20207;-69
2022/05/20 09:02:30;;;;;;;4.32;3.67;;;;;;;;;;5095025;28;20527;-69
2022/05/20 09:04:57;;;;;;;7.40;3.63;;;;;;;;;;5095296;28;20685;-69
2022/05/20 09:07:23;;;;;;;7.28;4.05;;;;;;;;;;5095176;28;20226;-69
2022/05/20 09:09:51;;;;;;;6.35;3.20;;;;;;;;;;5095490;28;20218;-69
2022/05/20 09:12:28;;;;;;;10.02;3.78;;;;;;;;;;5089133;28;20271;-69
2022/05/20 09:17:46;;;;;;;6.65;3.65;;;;;;;;;;5075286;28;20231;-70
2022/05/20 09:20:14;;;;;;;6.25;3.63;;;;;;;;;;5074835;28;20208;-70
2022/05/20 09:22:41;;;;;;;4.57;3.38;;;;;;;;;;5077415;28;20254;-70
2022/05/20 09:25:15;;;;;;;11.00;3.92;;;;;;;;;;5078948;28;20526;-70
2022/05/20 09:27:42;;;;;;;4.90;3.33;;;;;;;;;;5078508;28;20248;-69
2022/05/20 09:30:12;;;;;;;6.70;3.35;;;;;;;;;;5078362;28;20208;-70
2022/05/20 09:32:40;;;;;;;5.18;3.20;;;;;;;;;;5078212;28;20235;-69
2022/05/20 09:35:12;;;;;;;4.53;3.17;;;;;;;;;;5078295;28;20265;-69
2022/05/20 09:37:38;;;;;;;6.25;3.20;;;;;;;;;;5090537;28;20207;-69
2022/05/20 09:40:20;;;;;;;5.28;3.10;;;;;;;;;;5098691;28;20550;-69
2022/05/20 09:42:56;;;;;;;7.80;3.20;;;;;;;;;;5098732;28;20395;-69
2022/05/20 09:45:24;;;;;;;8.60;2.80;;;;;;;;;;5097188;28;20206;-69
2022/05/20 09:47:53;;;;;;;5.30;2.72;;;;;;;;;;5101314;28;20211;-69
2022/05/20 09:50:24;;;;;;;4.50;2.85;;;;;;;;;;5101598;28;20523;-69
2022/05/20 09:52:52;;;;;;;4.90;2.95;;;;;;;;;;5101469;28;20502;-69
2022/05/20 09:55:25;;;;;;;7.88;2.75;;;;;;;;;;5100955;28;21041;-69
2022/05/20 09:57:54;;;;;;;8.10;3.30;;;;;;;;;;5101084;28;20199;-69
2022/05/20 10:00:23;;;;;;;9.52;2.60;;;;;;;;;;5100678;28;20376;-69
2022/05/20 10:02:55;;;;;;;4.57;2.67;;;;;;;;;;5101340;28;20279;-69
2022/05/20 10:05:24;;;;;;;6.25;3.70;;;;;;;;;;5101126;28;20227;-69
2022/05/20 10:08:07;;;;;;;7.32;3.13;;;;;;;;;;5101011;28;20203;-69
2022/05/20 10:10:41;;;;;;;6.25;3.00;;;;;;;;;;5100908;28;20541;-69
2022/05/20 10:13:09;;;;;;;3.17;2.53;;;;;;;;;;5101298;28;20236;-69
2022/05/20 10:15:39;;;;;;;5.55;2.50;;;;;;;;;;5100887;28;20241;-69
2022/05/20 10:18:17;;;;;;;4.47;2.97;;;;;;;;;;5100749;28;20230;-70
2022/05/20 10:20:47;;;;;;;5.72;2.90;;;;;;;;;;5100701;28;20599;-69
2022/05/20 10:23:16;;;;;;;4.55;2.55;;;;;;;;;;5100891;28;20228;-70
2022/05/20 10:25:46;;;;;;;4.63;2.95;;;;;;;;;;5100855;28;20308;-69
2022/05/20 10:32:34;;;;;;;6.90;2.60;;;;;;;;;;5100605;28;20491;-69
2022/05/20 10:33:55;;;;;;;3.75;2.70;;;;;;;;;;5100591;28;20244;-70
2022/05/20 10:36:24;;;;;;;9.35;3.00;;;;;;;;;;5100804;28;20195;-71
2022/05/20 10:38:58;;;;;;;5.15;3.08;;;;;;;;;;5100862;28;20206;-69
2022/05/20 10:41:34;;;;;;;5.38;2.72;;;;;;;;;;5100534;28;20223;-69
2022/05/20 10:49:55;;;;;;;7.43;2.88;;;;;;;;;;5101115;28;20222;-69
2022/05/20 10:52:26;;;;;;;10.77;3.15;;;;;;;;;;5100478;28;20427;-69
2022/05/20 10:54:59;;;;;;;8.95;2.92;;;;;;;;;;5100380;28;20245;-69
2022/05/20 10:57:35;;;;;;;9.05;2.53;;;;;;;;;;5100681;28;20225;-69
2022/05/20 11:00:07;;;;;;;6.47;3.15;;;;;;;;;;5100639;28;20214;-69
2022/05/20 11:02:45;;;;;;;7.63;2.55;;;;;;;;;;5100530;28;20230;-69
2022/05/20 11:05:21;;;;;;;3.95;2.63;;;;;;;;;;5100638;28;20222;-70
2022/05/20 11:07:58;;;;;;;6.80;2.70;;;;;;;;;;5100181;28;20207;-69
2022/05/20 11:10:35;;;;;;;4.88;2.30;;;;;;;;;;5100530;28;20510;-70
2022/05/20 11:13:05;;;;;;;6.28;2.60;;;;;;;;;;5100863;28;20599;-70
2022/05/20 11:15:37;;;;;;;7.85;2.55;;;;;;;;;;5100488;28;20199;-70
2022/05/20 11:18:23;;;;;;;3.08;2.65;;;;;;;;;;5099168;28;20241;-70
2022/05/20 11:21:05;;;;;;;6.88;2.90;;;;;;;;;;5079937;28;20250;-70
2022/05/20 11:23:45;;;;;;;4.38;2.53;;;;;;;;;;5079927;28;20526;-70
2022/05/20 11:26:37;;;;;;;8.77;2.65;;;;;;;;;;5079758;28;20468;-70
2022/05/20 11:29:11;;;;;;;6.00;2.55;;;;;;;;;;5079465;28;20204;-70
2022/05/20 11:31:45;;;;;;;6.78;2.50;;;;;;;;;;5079686;28;20573;-70
2022/05/20 11:34:19;;;;;;;4.35;2.17;;;;;;;;;;5079720;28;20512;-70
2022/05/20 11:36:54;;;;;;;7.93;2.67;;;;;;;;;;5079251;28;20404;-70
2022/05/20 11:39:31;;;;;;;7.63;2.60;;;;;;;;;;5079433;28;20203;-70
2022/05/20 11:42:03;;;;;;;10.25;2.50;;;;;;;;;;5079028;28;20410;-68
2022/05/20 11:44:39;;;;;;;8.13;2.78;;;;;;;;;;5078813;28;20211;-71
2022/05/20 11:47:12;;;;;;;10.40;2.70;;;;;;;;;;5078970;28;20403;-71
2022/05/20 11:49:46;;;;;;;5.18;3.10;;;;;;;;;;5079531;28;20219;-71
2022/05/20 11:52:23;;;;;;;6.05;2.40;;;;;;;;;;5079295;28;20199;-69
2022/05/20 11:54:50;;;;;;;5.75;2.70;;;;;;;;;;5079171;28;20208;-71
2022/05/20 11:57:19;;;;;;;9.57;2.60;;;;;;;;;;5079462;28;20274;-70
2022/05/20 11:59:47;;;;;;;6.43;2.47;;;;;;;;;;5079479;28;20208;-70
2022/05/20 12:02:16;;;;;;;14.32;2.88;;;;;;;;;;5079154;28;20231;-71
2022/05/20 12:04:44;;;;;;;6.15;2.50;;;;;;;;;;5079237;28;20275;-71
2022/05/20 12:07:12;;;;;;;7.78;2.60;;;;;;;;;;5079758;28;20204;-72
2022/05/20 12:09:40;;;;;;;4.32;2.25;;;;;;;;;;5079078;28;20226;-71
2022/05/20 12:12:16;;;;;;;7.25;2.72;;;;;;;;;;5079515;28;20207;-71
2022/05/20 12:17:46;;;;;;;11.90;2.63;;;;;;;;;;5079822;28;20565;-70
2022/05/20 12:25:54;;;;;;;9.20;2.55;;;;;;;;;;5099362;28;20201;-71
2022/05/20 12:28:30;;;;;;;4.18;2.40;;;;;;;;;;5099245;28;20203;-71
2022/05/20 12:31:05;;;;;;;4.43;3.00;;;;;;;;;;5099599;28;20202;-71
2022/05/20 12:33:46;;;;;;;8.10;2.08;;;;;;;;;;5102147;28;20198;-71
2022/05/20 12:36:23;;;;;;;9.00;2.85;;;;;;;;;;5101754;28;20202;-71
2022/05/20 12:38:50;;;;;;;7.10;2.50;;;;;;;;;;5095139;28;20183;-72
2022/05/20 12:47:31;;;;;;;2.72;2.30;;;;;;;;;;5081334;28;20162;-71
2022/05/20 12:50:04;;;;;;;6.50;2.70;;;;;;;;;;5081867;28;20495;-72
2022/05/20 12:52:32;;;;;;;8.35;2.47;;;;;;;;;;5081580;28;20496;-71
2022/05/20 12:54:59;;;;;;;8.68;2.60;;;;;;;;;;5081333;28;20425;-71
2022/05/20 12:57:27;;;;;;;6.07;2.60;;;;;;;;;;5084915;28;20196;-72
2022/05/20 12:59:56;;;;;;;8.88;2.72;;;;;;;;;;5085533;28;20491;-72
2022/05/20 13:02:23;;;;;;;7.38;2.50;;;;;;;;;;5085115;28;20216;-72
2022/05/20 13:04:56;;;;;;;7.65;2.50;;;;;;;;;;5085018;28;20384;-72
2022/05/20 13:07:24;;;;;;;7.53;2.50;;;;;;;;;;5084739;28;20214;-71
2022/05/20 13:09:50;;;;;;;5.38;2.25;;;;;;;;;;5085157;28;20211;-71
2022/05/20 13:12:19;;;;;;;8.95;2.47;;;;;;;;;;5085097;28;20391;-71
2022/05/20 13:14:46;;;;;;;5.47;2.45;;;;;;;;;;5085031;28;20203;-70
2022/05/20 13:17:13;;;;;;;5.82;2.63;;;;;;;;;;5084916;28;20392;-70
2022/05/20 13:19:42;;;;;;;4.45;2.50;;;;;;;;;;5085100;28;20203;-71
2022/05/20 13:22:10;;;;;;;7.05;2.70;;;;;;;;;;5084930;28;20406;-70
2022/05/20 13:24:38;;;;;;;5.57;2.50;;;;;;;;;;5084862;28;20200;-72
2022/05/20 13:27:06;;;;;;;8.70;2.67;;;;;;;;;;5085023;28;20202;-71
2022/05/20 13:29:32;;;;;;;4.75;2.53;;;;;;;;;;5084797;28;20196;-71
2022/05/20 13:32:11;;;;;;;7.35;2.42;;;;;;;;;;5084851;28;20198;-71
2022/05/20 13:34:37;;;;;;;9.55;3.00;;;;;;;;;;5084707;28;20203;-71
2022/05/20 13:37:03;;;;;;;5.50;2.55;;;;;;;;;;5084576;28;20196;-71
2022/05/20 13:39:33;;;;;;;6.68;2.50;;;;;;;;;;5084610;28;20518;-70
2022/05/20 13:42:00;;;;;;;7.40;2.13;;;;;;;;;;5084778;28;20227;-71
2022/05/20 13:44:26;;;;;;;3.03;2.50;;;;;;;;;;5084475;28;20199;-71
2022/05/20 13:49:37;;;;;;;10.90;2.28;;;;;;;;;;5084568;28;20194;-71
2022/05/20 13:52:05;;;;;;;7.43;2.63;;;;;;;;;;5084316;28;20195;-71
2022/05/20 13:54:35;;;;;;;4.90;2.40;;;;;;;;;;5084600;28;20456;-71
2022/05/20 13:57:02;;;;;;;11.98;2.67;;;;;;;;;;5084346;28;20206;-71
2022/05/20 13:59:34;;;;;;;5.20;2.45;;;;;;;;;;5084654;28;20234;-71
2022/05/20 14:02:04;;;;;;;6.60;2.75;;;;;;;;;;5084039;28;20227;-71
2022/05/20 14:04:35;;;;;;;7.05;2.80;;;;;;;;;;5083965;28;20219;-71
2022/05/20 14:07:04;;;;;;;9.90;2.92;;;;;;;;;;5083493;28;20195;-70
2022/05/20 14:09:30;;;;;;;6.97;2.67;;;;;;;;;;5083872;28;20195;-71
2022/05/20 14:11:58;;;;;;;9.40;2.55;;;;;;;;;;5084180;28;20202;-71
2022/05/20 14:14:29;;;;;;;5.32;2.15;;;;;;;;;;5083982;28;20195;-71
2022/05/20 14:16:58;;;;;;;10.43;2.70;;;;;;;;;;5083728;28;20541;-70
2022/05/20 14:19:27;;;;;;;9.73;2.83;;;;;;;;;;5084098;28;20232;-71
2022/05/20 14:21:56;;;;;;;8.15;2.70;;;;;;;;;;5083989;28;20224;-71
2022/05/20 14:24:25;;;;;;;6.55;2.47;;;;;;;;;;5083775;28;20202;-71
2022/05/20 14:26:53;;;;;;;7.10;2.58;;;;;;;;;;5083707;28;20196;-70
2022/05/20 14:29:23;;;;;;;6.60;2.67;;;;;;;;;;5083882;28;20200;-71
2022/05/20 14:31:52;;;;;;;5.95;2.90;;;;;;;;;;5083715;28;20195;-72
2022/05/20 14:34:22;;;;;;;7.47;2.58;;;;;;;;;;5083959;28;20204;-70
2022/05/20 14:36:48;;;;;;;7.55;2.80;;;;;;;;;;5083586;28;20199;-70
2022/05/20 14:39:16;;;;;;;4.53;2.60;;;;;;;;;;5083954;28;20226;-70
2022/05/20 14:41:43;;;;;;;10.43;3.88;;;;;;;;;;5083409;28;20196;-70
2022/05/20 14:44:13;;;;;;;7.85;3.03;;;;;;;;;;5083477;28;20202;-70
2022/05/20 14:49:32;;;;;;;6.75;3.25;;;;;;;;;;5083753;28;20199;-70
2022/05/20 14:51:59;;;;;;;12.32;3.17;;;;;;;;;;5083593;28;20211;-69
2022/05/20 14:54:28;;;;;;;10.93;2.92;;;;;;;;;;5083356;28;20203;-70
2022/05/20 14:56:55;;;;;;;10.63;2.90;;;;;;;;;;5083420;28;20389;-70
2022/05/20 14:59:32;;;;;;;14.05;3.08;;;;;;;;;;5083512;28;20204;-69
2022/05/20 15:01:59;;;;;;;12.00;3.15;;;;;;;;;;5083333;28;20195;-71
2022/05/20 15:04:26;;;;;;;13.27;3.65;;;;;;;;;;5083116;28;20229;-71
2022/05/20 15:06:54;;;;;;;12.43;3.30;;;;;;;;;;5082794;28;20215;-71
2022/05/20 15:09:22;;;;;;;8.25;3.30;;;;;;;;;;5082941;28;20267;-71
2022/05/20 15:11:50;;;;;;;10.57;3.65;;;;;;;;;;5082944;28;20250;-71
2022/05/20 15:14:17;;;;;;;13.60;3.50;;;;;;;;;;5082707;28;20436;-70
2022/05/20 15:16:43;;;;;;;12.48;3.40;;;;;;;;;;5082575;28;20196;-70
2022/05/20 15:19:11;;;;;;;3.05;2.80;;;;;;;;;;5082097;28;20192;-70
2022/05/20 15:21:39;;;;;;;10.20;3.20;;;;;;;;;;5082722;28;20433;-70
2022/05/20 15:24:07;;;;;;;15.98;3.22;;;;;;;;;;5082852;28;20220;-69
2022/05/20 15:26:35;;;;;;;10.60;2.90;;;;;;;;;;5082608;28;20212;-70
2022/05/20 15:29:02;;;;;;;11.55;3.17;;;;;;;;;;5082812;28;20202;-70
2022/05/20 15:37:05;;;;;;;7.78;3.38;;;;;;;;;;5082527;28;20199;-71
2022/05/20 15:39:32;;;;;;;11.23;3.13;;;;;;;;;;5082519;28;20271;-70
2022/05/20 15:41:58;;;;;;;7.72;3.15;;;;;;;;;;5082293;28;20217;-70
2022/05/20 15:44:25;;;;;;;7.32;3.35;;;;;;;;;;5082427;28;20526;-71
2022/05/20 15:46:52;;;;;;;11.60;3.10;;;;;;;;;;5082485;28;20462;-71
2022/05/20 15:49:20;;;;;;;7.13;3.15;;;;;;;;;;5082387;28;20188;-69